createdAt,value
2023-03-04T00:02:21.693Z,38.75
2023-03-04T00:04:47.394Z,38.71
2023-03-04T00:07:15.916Z,38.72
2023-03-04T00:09:43.641Z,38.74
2023-03-04T00:12:09.339Z,38.80
2023-03-04T00:14:34.981Z,38.79
2023-03-04T00:17:03.524Z,38.75
2023-03-04T00:19:30.174Z,38.92
2023-03-04T00:21:56.193Z,38.74
2023-03-04T00:24:21.838Z,38.79
2023-03-04T00:26:47.494Z,38.70
2023-03-04T00:29:13.268Z,38.90
2023-03-04T00:31:38.975Z,38.82
2023-03-04T00:34:04.735Z,38.75
2023-03-04T00:36:30.380Z,38.77
2023-03-04T00:38:56.042Z,38.78
2023-03-04T00:41:21.700Z,38.80
2023-03-04T00:43:47.363Z,38.87
2023-03-04T00:46:13.078Z,38.79
2023-03-04T00:48:39.443Z,38.76
2023-03-04T00:51:06.203Z,38.95
2023-03-04T00:53:31.913Z,38.76
2023-03-04T00:55:57.555Z,38.76
2023-03-04T00:58:23.213Z,38.78
2023-03-04T01:00:48.843Z,38.89
2023-03-04T01:03:14.739Z,38.84
2023-03-04T01:05:40.660Z,38.77
2023-03-04T01:08:06.345Z,38.78
2023-03-04T01:10:32.068Z,38.72
2023-03-04T01:12:57.732Z,38.70
2023-03-04T01:15:23.405Z,38.61
2023-03-04T01:17:49.091Z,38.72
2023-03-04T01:20:15.399Z,38.75
2023-03-04T01:22:41.085Z,38.85
2023-03-04T01:25:07.061Z,38.72
2023-03-04T01:27:32.695Z,38.71
2023-03-04T01:29:58.343Z,38.61
2023-03-04T01:32:24.067Z,38.80
2023-03-04T01:34:49.732Z,38.78
2023-03-04T01:37:15.418Z,38.85
2023-03-04T01:39:41.118Z,38.78
2023-03-04T01:42:17.439Z,38.88
2023-03-04T01:44:43.545Z,38.71
2023-03-04T01:47:09.648Z,38.78
2023-03-04T01:49:35.352Z,38.69
2023-03-04T01:52:01.004Z,38.81
2023-03-04T01:54:26.652Z,38.73
2023-03-04T01:56:52.615Z,38.69
2023-03-04T01:59:21.463Z,38.84
2023-03-04T02:01:50.192Z,38.98
2023-03-04T02:04:17.291Z,38.71
2023-03-04T02:06:43.619Z,38.78
2023-03-04T02:09:09.960Z,38.72
2023-03-04T02:11:36.910Z,38.96
2023-03-04T02:14:02.624Z,38.77
2023-03-04T02:16:28.396Z,38.80
2023-03-04T02:18:54.161Z,38.76
2023-03-04T02:21:25.676Z,38.79
2023-03-04T02:23:59.963Z,38.95
2023-03-04T02:26:27.824Z,38.85
2023-03-04T02:28:54.684Z,38.79
2023-03-04T02:31:29.774Z,38.74
2023-03-04T02:33:57.655Z,38.76
2023-03-04T02:36:23.929Z,38.87
2023-03-04T02:38:51.218Z,38.72
2023-03-04T02:41:19.968Z,38.76
2023-03-04T02:43:45.981Z,38.80
2023-03-04T02:46:12.317Z,38.62
2023-03-04T02:48:38.080Z,38.86
2023-03-04T02:51:03.912Z,38.92
2023-03-04T02:53:29.548Z,38.73
2023-03-04T02:55:55.202Z,38.94
2023-03-04T02:58:20.865Z,38.86
2023-03-04T03:00:46.569Z,38.77
2023-03-04T03:03:12.347Z,38.87
2023-03-04T03:05:38.819Z,38.72
2023-03-04T03:08:05.006Z,38.90
2023-03-04T03:10:30.779Z,38.88
2023-03-04T03:12:56.408Z,38.88
2023-03-04T03:15:22.057Z,38.56
2023-03-04T03:17:47.725Z,38.77
2023-03-04T03:20:13.919Z,38.75
2023-03-04T03:22:40.540Z,38.76
2023-03-04T03:25:07.268Z,38.82
2023-03-04T03:27:33.045Z,38.82
2023-03-04T03:29:58.716Z,38.88
2023-03-04T03:32:24.381Z,38.86
2023-03-04T03:34:50.233Z,38.85
2023-03-04T03:37:15.948Z,38.85
2023-03-04T03:39:41.680Z,38.83
2023-03-04T03:42:07.503Z,39.07
2023-03-04T03:44:33.163Z,38.80
2023-03-04T03:46:58.828Z,38.57
2023-03-04T03:49:24.507Z,39.02
2023-03-04T03:51:50.213Z,38.97
2023-03-04T03:54:15.866Z,38.66
2023-03-04T03:56:41.565Z,38.85
2023-03-04T03:59:07.397Z,38.85
2023-03-04T04:01:33.057Z,38.83
2023-03-04T04:03:59.344Z,38.83
2023-03-04T04:06:25.620Z,38.76
2023-03-04T04:08:51.447Z,38.84
2023-03-04T04:11:17.403Z,38.56
2023-03-04T04:13:43.060Z,38.92
2023-03-04T04:16:09.526Z,38.91
2023-03-04T04:18:35.448Z,38.92
2023-03-04T04:21:01.258Z,38.78
2023-03-04T04:23:26.888Z,39.01
2023-03-04T04:25:54.614Z,38.82
2023-03-04T04:28:20.268Z,38.86
2023-03-04T04:30:45.952Z,38.89
2023-03-04T04:33:11.805Z,38.82
2023-03-04T04:35:38.432Z,38.79
2023-03-04T04:38:04.985Z,38.87
2023-03-04T04:40:30.663Z,38.85
2023-03-04T04:42:56.296Z,38.88
2023-03-04T04:45:23.993Z,38.92
2023-03-04T04:47:50.615Z,38.82
2023-03-04T04:50:16.354Z,38.92
2023-03-04T04:52:42.203Z,38.81
2023-03-04T04:55:08.406Z,38.84
2023-03-04T04:57:34.153Z,38.97
2023-03-04T04:59:59.827Z,38.93
2023-03-04T05:02:25.516Z,38.89
2023-03-04T05:04:51.296Z,38.91
2023-03-04T05:07:16.988Z,38.92
2023-03-04T05:09:42.668Z,38.83
2023-03-04T05:12:08.315Z,38.72
2023-03-04T05:14:33.961Z,38.76
2023-03-04T05:16:59.607Z,38.83
2023-03-04T05:19:25.339Z,38.79
2023-03-04T05:21:50.989Z,38.82
2023-03-04T05:24:16.676Z,38.81
2023-03-04T05:26:42.353Z,38.89
2023-03-04T05:29:07.990Z,38.95
2023-03-04T05:31:33.651Z,38.91
2023-03-04T05:33:59.297Z,38.92
2023-03-04T05:36:25.099Z,38.77
2023-03-04T05:38:50.868Z,38.89
2023-03-04T05:41:19.572Z,38.91
2023-03-04T05:43:45.326Z,38.99
2023-03-04T05:46:15.498Z,38.93
2023-03-04T05:48:41.410Z,38.71
2023-03-04T05:51:07.060Z,38.90
2023-03-04T05:53:32.715Z,38.89
2023-03-04T05:55:59.140Z,38.91
2023-03-04T05:58:25.134Z,38.96
2023-03-04T06:00:50.859Z,38.99
2023-03-04T06:03:19.164Z,38.76
2023-03-04T06:05:45.064Z,38.91
2023-03-04T06:08:11.449Z,39.16
2023-03-04T06:10:38.603Z,38.79
2023-03-04T06:13:04.250Z,38.96
2023-03-04T06:15:30.060Z,38.90
2023-03-04T06:17:55.775Z,38.84
2023-03-04T06:20:21.428Z,38.93
2023-03-04T06:22:47.068Z,38.89
2023-03-04T06:25:12.715Z,38.85
2023-03-04T06:27:38.460Z,38.87
2023-03-04T06:30:04.786Z,38.84
2023-03-04T06:32:30.605Z,38.94
2023-03-04T06:34:56.272Z,38.87
2023-03-04T06:37:21.982Z,39.16
2023-03-04T06:39:47.624Z,38.86
2023-03-04T06:42:13.469Z,38.90
2023-03-04T06:44:39.204Z,38.93
2023-03-04T06:47:04.872Z,38.91
2023-03-04T06:49:30.514Z,38.96
2023-03-04T06:51:56.230Z,38.90
2023-03-04T06:54:21.937Z,38.96
2023-03-04T06:56:47.594Z,38.83
2023-03-04T06:59:13.394Z,38.90
2023-03-04T07:01:39.099Z,38.91
2023-03-04T07:04:04.926Z,38.97
2023-03-04T07:06:30.722Z,38.85
2023-03-04T07:08:56.562Z,39.00
2023-03-04T07:11:22.693Z,38.81
2023-03-04T07:13:48.496Z,39.08
2023-03-04T07:16:16.988Z,38.95
2023-03-04T07:18:42.641Z,39.00
2023-03-04T07:21:08.451Z,39.04
2023-03-04T07:23:34.185Z,38.96
2023-03-04T07:26:00.059Z,38.91
2023-03-04T07:28:25.749Z,38.85
2023-03-04T07:30:51.390Z,38.86
2023-03-04T07:33:17.026Z,38.94
2023-03-04T07:35:42.835Z,38.74
2023-03-04T07:38:08.547Z,38.77
2023-03-04T07:40:34.191Z,38.89
2023-03-04T07:42:59.829Z,39.00
2023-03-04T07:45:25.681Z,38.77
2023-03-04T07:47:51.684Z,38.94
2023-03-04T07:54:29.486Z,39.00
2023-03-04T07:56:55.136Z,38.89
2023-03-04T07:59:20.835Z,38.81
2023-03-04T08:01:46.503Z,38.98
2023-03-04T08:04:12.252Z,38.92
2023-03-04T08:06:40.093Z,38.93
2023-03-04T08:09:08.185Z,38.81
2023-03-04T08:11:35.296Z,38.87
2023-03-04T08:14:00.998Z,39.03
2023-03-04T08:16:26.825Z,38.92
2023-03-04T08:18:54.980Z,38.87
2023-03-04T08:21:21.775Z,38.77
2023-03-04T08:23:48.227Z,39.00
2023-03-04T08:26:20.266Z,39.02
2023-03-04T08:28:46.383Z,38.84
2023-03-04T08:31:13.258Z,39.02
2023-03-04T08:33:39.279Z,38.92
2023-03-04T08:36:05.374Z,39.02
2023-03-04T08:38:31.979Z,38.86
2023-03-04T08:40:57.645Z,38.98
2023-03-04T08:43:24.468Z,38.96
2023-03-04T08:45:51.577Z,38.89
2023-03-04T08:48:17.453Z,38.94
2023-03-04T08:50:44.289Z,38.98
2023-03-04T08:53:10.724Z,39.10
2023-03-04T08:55:39.108Z,38.97
2023-03-04T08:58:05.235Z,38.92
2023-03-04T09:00:31.553Z,38.93
2023-03-04T09:02:57.223Z,38.86
2023-03-04T09:05:22.892Z,38.85
2023-03-04T09:07:48.556Z,38.98
2023-03-04T09:10:14.208Z,39.07
2023-03-04T09:12:39.908Z,38.98
2023-03-04T09:15:11.645Z,39.10
2023-03-04T09:17:38.656Z,38.98
2023-03-04T09:20:07.441Z,38.92
2023-03-04T09:22:33.088Z,39.08
2023-03-04T09:24:58.878Z,39.04
2023-03-04T09:27:24.604Z,38.93
2023-03-04T09:29:50.247Z,39.00
2023-03-04T09:32:15.912Z,38.83
2023-03-04T09:34:41.607Z,38.92
2023-03-04T09:37:07.320Z,38.95
2023-03-04T09:39:32.962Z,38.98
2023-03-04T09:41:59.779Z,39.02
2023-03-04T09:44:29.174Z,39.01
2023-03-04T09:46:58.437Z,39.07
2023-03-04T09:49:24.657Z,38.97
2023-03-04T09:52:04.912Z,39.01
2023-03-04T09:54:40.070Z,38.90
2023-03-04T09:57:27.810Z,38.99
2023-03-04T10:00:06.927Z,39.13
2023-03-04T10:02:51.762Z,39.04
2023-03-04T10:05:19.872Z,38.85
2023-03-04T10:07:49.303Z,38.96
2023-03-04T10:10:26.706Z,39.29
2023-03-04T10:12:55.073Z,38.90
2023-03-04T10:15:34.694Z,38.96
2023-03-04T10:18:13.934Z,38.81
2023-03-04T10:21:19.385Z,38.97
2023-03-04T10:23:45.214Z,38.97
2023-03-04T10:26:16.349Z,38.99
2023-03-04T10:28:42.450Z,39.07
2023-03-04T10:33:42.623Z,39.00
2023-03-04T10:39:38.502Z,38.87
2023-03-04T10:42:23.677Z,38.82
2023-03-04T10:44:53.096Z,38.90
2023-03-04T10:47:18.852Z,39.06
2023-03-04T10:49:55.292Z,38.99
2023-03-04T10:52:29.434Z,39.05
2023-03-04T10:54:57.978Z,38.95
2023-03-04T10:57:32.618Z,38.90
2023-03-04T11:00:02.861Z,39.12
2023-03-04T11:02:32.190Z,39.13
2023-03-04T11:05:18.895Z,39.16
2023-03-04T11:07:55.627Z,39.11
2023-03-04T11:10:40.084Z,38.88
2023-03-04T11:13:16.983Z,38.89
2023-03-04T11:16:04.469Z,38.96
2023-03-04T11:18:41.082Z,39.03
2023-03-04T11:21:07.448Z,38.92
2023-03-04T11:23:45.705Z,39.34
2023-03-04T11:26:16.461Z,39.12
2023-03-04T11:28:53.687Z,39.05
2023-03-04T11:31:25.343Z,39.16
2023-03-04T11:34:01.163Z,38.94
2023-03-04T11:36:57.816Z,39.02
2023-03-04T11:39:43.449Z,38.90
2023-03-04T11:42:38.642Z,38.89
2023-03-04T11:45:26.126Z,39.10
2023-03-04T11:48:26.097Z,39.03
2023-03-04T11:51:13.131Z,39.13
2023-03-04T11:53:46.512Z,39.15
2023-03-04T11:59:15.010Z,39.13
2023-03-04T12:02:09.069Z,39.04
2023-03-04T12:05:14.519Z,39.19
2023-03-04T12:08:19.987Z,38.89
2023-03-04T12:10:58.890Z,38.99
2023-03-04T12:14:04.352Z,38.97
2023-03-04T12:25:11.966Z,39.12
2023-03-04T12:27:49.434Z,39.08
2023-03-04T12:30:39.640Z,39.01
2023-03-04T12:33:28.521Z,39.14
2023-03-04T12:38:43.773Z,39.15
2023-03-04T12:41:34.231Z,39.15
2023-03-04T12:44:09.469Z,39.01
2023-03-04T12:49:28.453Z,39.16
2023-03-04T12:52:12.460Z,39.05
2023-03-04T12:54:43.808Z,39.13
2023-03-04T12:57:13.149Z,39.24
2023-03-04T12:59:45.005Z,39.06
2023-03-04T13:02:50.969Z,39.07
2023-03-04T13:05:54.935Z,39.25
2023-03-04T13:08:35.908Z,39.15
2023-03-04T13:11:08.202Z,39.00
2023-03-04T13:13:39.097Z,38.93
2023-03-04T13:16:26.264Z,39.18
2023-03-04T13:18:52.283Z,39.23
2023-03-04T13:21:24.035Z,38.99
2023-03-04T13:23:50.863Z,39.08
2023-03-04T13:26:28.776Z,39.13
2023-03-04T13:32:10.184Z,39.07
2023-03-04T13:34:53.012Z,39.02
2023-03-04T13:37:35.140Z,39.13
2023-03-04T13:43:35.419Z,38.92
2023-03-04T13:46:26.549Z,39.01
2023-03-04T13:51:46.444Z,39.18
2023-03-04T13:54:25.919Z,38.92
2023-03-04T13:57:19.321Z,39.15
2023-03-04T13:59:52.931Z,39.14
2023-03-04T14:02:21.772Z,39.10
2023-03-04T14:04:58.745Z,38.72
2023-03-04T14:07:35.951Z,39.01
2023-03-04T14:10:14.155Z,39.16
2023-03-04T14:12:44.580Z,39.49
2023-03-04T14:15:19.934Z,39.40
2023-03-04T14:17:48.928Z,39.15
2023-03-04T14:20:24.217Z,39.01
2023-03-04T14:22:49.874Z,39.55
2023-03-04T14:28:12.288Z,39.27
2023-03-04T14:30:42.743Z,39.23
2023-03-04T14:33:14.484Z,39.25
2023-03-04T14:35:45.902Z,39.28
2023-03-04T14:38:24.205Z,39.21
2023-03-04T14:40:53.317Z,39.00
2023-03-04T14:43:21.002Z,39.23
2023-03-04T14:45:52.923Z,39.09
2023-03-04T14:48:22.583Z,39.11
2023-03-04T14:50:49.542Z,39.24
2023-03-04T14:53:18.628Z,39.07
2023-03-04T14:56:05.767Z,39.37
2023-03-04T14:58:33.345Z,39.29
2023-03-04T15:01:06.501Z,39.06
2023-03-04T15:03:32.815Z,39.07
2023-03-04T15:06:14.403Z,39.29
2023-03-04T15:08:40.277Z,39.20
2023-03-04T15:11:06.988Z,39.08
2023-03-04T15:13:50.559Z,39.26
2023-03-04T15:16:21.098Z,39.16
2023-03-04T15:18:57.425Z,39.18
2023-03-04T15:21:33.522Z,39.08
2023-03-04T15:24:00.302Z,39.14
2023-03-04T15:26:26.359Z,39.21
2023-03-04T15:28:52.287Z,39.15
2023-03-04T15:31:20.073Z,39.26
2023-03-04T15:33:46.308Z,39.09
2023-03-04T15:36:15.220Z,39.18
2023-03-04T15:38:42.009Z,39.20
2023-03-04T15:41:11.111Z,39.20
2023-03-04T15:43:36.799Z,39.15
2023-03-04T15:46:02.600Z,39.26
2023-03-04T15:48:28.286Z,39.18
2023-03-04T15:50:59.149Z,39.19
2023-03-04T15:53:32.200Z,39.24
2023-03-04T15:55:58.260Z,39.14
2023-03-04T15:58:23.925Z,39.23
2023-03-04T16:00:50.501Z,39.15
2023-03-04T16:03:18.320Z,39.25
2023-03-04T16:05:45.719Z,39.17
2023-03-04T16:08:14.076Z,39.21
2023-03-04T16:10:39.716Z,39.18
2023-03-04T16:13:05.381Z,39.25
2023-03-04T16:15:31.031Z,39.18
2023-03-04T16:17:56.773Z,39.26
2023-03-04T16:20:24.333Z,39.35
2023-03-04T16:22:54.038Z,39.34
2023-03-04T16:25:20.160Z,39.25
2023-03-04T16:27:46.188Z,39.26
2023-03-04T16:30:15.708Z,39.14
2023-03-04T16:32:41.468Z,39.30
2023-03-04T16:35:07.447Z,39.21
2023-03-04T16:37:33.164Z,39.18
2023-03-04T16:39:59.219Z,39.37
2023-03-04T16:42:26.287Z,39.19
2023-03-04T16:44:53.268Z,39.29
2023-03-04T16:47:18.967Z,39.26
2023-03-04T16:49:46.492Z,39.20
2023-03-04T16:52:29.527Z,39.22
2023-03-04T16:54:55.182Z,38.94
2023-03-04T16:57:20.828Z,39.21
2023-03-04T16:59:46.840Z,39.29
2023-03-04T17:02:16.866Z,39.31
2023-03-04T17:04:43.684Z,39.16
2023-03-04T17:07:09.617Z,39.29
2023-03-04T17:09:36.840Z,39.27
2023-03-04T17:12:04.778Z,39.43
2023-03-04T17:14:30.632Z,39.25
2023-03-04T17:16:56.334Z,39.25
2023-03-04T17:19:23.023Z,38.99
2023-03-04T17:21:48.688Z,39.31
2023-03-04T17:24:14.328Z,39.17
2023-03-04T17:26:41.773Z,39.17
2023-03-04T17:29:08.497Z,39.56
2023-03-04T17:31:35.184Z,39.29
2023-03-04T17:34:01.095Z,39.33
2023-03-04T17:36:26.756Z,39.28
2023-03-04T17:38:52.392Z,39.25
2023-03-04T17:41:18.381Z,39.30
2023-03-04T17:43:45.343Z,39.13
2023-03-04T17:46:12.125Z,39.36
2023-03-04T17:48:37.817Z,39.16
2023-03-04T17:51:03.803Z,39.34
2023-03-04T17:53:29.571Z,39.21
2023-03-04T17:55:57.184Z,39.21
2023-03-04T17:58:23.357Z,39.36
2023-03-04T18:00:50.919Z,39.22
2023-03-04T18:03:16.572Z,39.21
2023-03-04T18:05:42.343Z,39.29
2023-03-04T18:08:08.011Z,39.35
2023-03-04T18:10:34.124Z,39.53
2023-03-04T18:13:00.024Z,39.28
2023-03-04T18:15:25.711Z,39.24
2023-03-04T18:17:51.495Z,39.26
2023-03-04T18:20:17.625Z,39.24
2023-03-04T18:22:43.822Z,39.35
2023-03-04T18:25:11.697Z,39.17
2023-03-04T18:27:39.413Z,39.27
2023-03-04T18:30:07.067Z,39.31
2023-03-04T18:32:45.746Z,39.26
2023-03-04T18:35:18.618Z,39.47
2023-03-04T18:37:44.541Z,39.31
2023-03-04T18:40:10.898Z,39.09
2023-03-04T18:42:36.795Z,39.30
2023-03-04T18:45:03.880Z,39.22
2023-03-04T18:47:30.885Z,39.35
2023-03-04T18:49:56.517Z,39.40
2023-03-04T18:52:22.178Z,39.11
2023-03-04T18:54:47.815Z,39.27
2023-03-04T18:57:15.615Z,39.23
2023-03-04T18:59:44.246Z,39.33
2023-03-04T19:02:16.913Z,39.33
2023-03-04T19:04:42.691Z,39.25
2023-03-04T19:07:08.355Z,39.27
2023-03-04T19:09:34.042Z,39.30
2023-03-04T19:12:01.079Z,39.25
2023-03-04T19:14:26.718Z,39.35
2023-03-04T19:16:52.419Z,39.33
2023-03-04T19:19:18.115Z,39.30
2023-03-04T19:21:43.887Z,39.25
2023-03-04T19:24:09.514Z,39.21
2023-03-04T19:26:35.211Z,39.52
2023-03-04T19:29:00.860Z,39.11
2023-03-04T19:31:26.688Z,38.96
2023-03-04T19:33:52.457Z,39.33
2023-03-04T19:36:18.112Z,39.09
2023-03-04T19:38:43.757Z,39.18
2023-03-04T19:41:11.345Z,39.29
2023-03-04T19:43:38.437Z,39.36
2023-03-04T19:46:05.054Z,39.13
2023-03-04T19:48:30.715Z,39.42
2023-03-04T19:50:56.352Z,39.29
2023-03-04T19:53:21.980Z,39.37
2023-03-04T19:55:48.476Z,39.32
2023-03-04T19:58:15.799Z,39.44
2023-03-04T20:00:41.606Z,39.41
2023-03-04T20:03:07.370Z,39.38
2023-03-04T20:05:34.371Z,39.40
2023-03-04T20:08:00.334Z,39.35
2023-03-04T20:10:29.489Z,39.18
2023-03-04T20:12:55.126Z,39.31
2023-03-04T20:15:20.767Z,39.42
2023-03-04T20:17:46.432Z,39.37
2023-03-04T20:20:13.462Z,39.30
2023-03-04T20:22:39.106Z,39.29
2023-03-04T20:25:05.181Z,39.31
2023-03-04T20:27:30.827Z,39.46
2023-03-04T20:29:56.466Z,39.31
2023-03-04T20:32:22.350Z,39.41
2023-03-04T20:34:53.155Z,39.35
2023-03-04T20:37:19.738Z,39.31
2023-03-04T20:39:45.894Z,39.45
2023-03-04T20:42:11.969Z,39.32
2023-03-04T20:44:37.797Z,39.20
2023-03-04T20:47:03.719Z,39.35
2023-03-04T20:49:29.797Z,39.31
2023-03-04T20:52:01.954Z,39.29
2023-03-04T20:54:28.668Z,39.44
2023-03-04T20:56:54.509Z,39.46
2023-03-04T20:59:20.216Z,39.27
2023-03-04T21:01:47.239Z,39.40
2023-03-04T21:04:13.434Z,39.29
2023-03-04T21:06:39.784Z,39.44
2023-03-04T21:09:08.699Z,39.33
2023-03-04T21:11:39.341Z,39.32
2023-03-04T21:14:08.668Z,39.25
2023-03-04T21:16:34.308Z,39.39
2023-03-04T21:18:59.963Z,39.44
2023-03-04T21:21:27.824Z,39.40
2023-03-04T21:23:54.797Z,39.31
2023-03-04T21:26:21.531Z,39.37
2023-03-04T21:28:47.591Z,39.55
2023-03-04T21:31:16.975Z,39.45
2023-03-04T21:33:43.247Z,39.42
2023-03-04T21:36:09.938Z,39.38
2023-03-04T21:38:36.129Z,39.29
2023-03-04T21:41:02.978Z,39.46
2023-03-04T21:43:28.622Z,39.37
2023-03-04T21:45:55.926Z,39.19
2023-03-04T21:48:22.832Z,39.39
2023-03-04T21:50:48.718Z,39.40
2023-03-04T21:53:18.733Z,39.37
2023-03-04T21:55:44.731Z,39.49
2023-03-04T21:58:10.392Z,39.33
2023-03-04T22:00:36.966Z,39.35
2023-03-04T22:03:02.727Z,39.40
2023-03-04T22:05:28.437Z,39.44
2023-03-04T22:07:54.117Z,39.20
2023-03-04T22:10:19.774Z,39.42
2023-03-04T22:12:45.426Z,39.36
2023-03-04T22:15:11.604Z,39.41
2023-03-04T22:17:37.390Z,39.46
2023-03-04T22:20:03.565Z,39.38
2023-03-04T22:22:29.522Z,39.08
2023-03-04T22:24:57.764Z,39.66
2023-03-04T22:27:24.514Z,39.45
2023-03-04T22:29:50.152Z,39.30
2023-03-04T22:32:16.228Z,39.34
2023-03-04T22:34:42.259Z,39.38
2023-03-04T22:37:08.142Z,39.32
2023-03-04T22:39:33.801Z,39.27
2023-03-04T22:41:59.437Z,39.31
2023-03-04T22:44:25.368Z,39.23
2023-03-04T22:46:51.083Z,39.41
2023-03-04T22:49:16.739Z,39.57
2023-03-04T22:51:43.229Z,39.45
2023-03-04T22:54:17.171Z,39.28
2023-03-04T22:56:43.459Z,39.42
2023-03-04T22:59:09.472Z,39.59
2023-03-04T23:01:35.369Z,39.31
2023-03-04T23:04:01.046Z,39.36
2023-03-04T23:06:29.270Z,39.45
2023-03-04T23:08:55.385Z,39.67
2023-03-04T23:11:25.510Z,39.42
2023-03-04T23:13:51.506Z,39.52
2023-03-04T23:16:17.862Z,39.47
2023-03-04T23:18:46.375Z,39.32
2023-03-04T23:21:12.912Z,39.36
2023-03-04T23:23:39.214Z,39.37
2023-03-04T23:26:05.494Z,39.38
2023-03-04T23:28:31.808Z,39.43
2023-03-04T23:30:57.542Z,39.22
2023-03-04T23:33:23.260Z,39.63
2023-03-04T23:35:48.981Z,39.38
2023-03-04T23:38:14.694Z,39.49
2023-03-04T23:40:40.345Z,39.39
2023-03-04T23:43:05.988Z,39.25
2023-03-04T23:45:32.630Z,39.45
2023-03-04T23:47:58.356Z,39.33
2023-03-04T23:50:24.060Z,39.45
2023-03-04T23:52:49.708Z,39.56
2023-03-04T23:55:16.923Z,39.58
2023-03-04T23:57:43.576Z,39.49
